createdAt,value
2018-07-23T00:00:00.879Z,73.82
2018-07-23T00:02:34.748Z,75.64
2018-07-23T00:05:08.469Z,76.09
2018-07-23T00:07:42.649Z,75.13
2018-07-23T00:10:16.573Z,75.97
2018-07-23T00:12:50.932Z,76.89
2018-07-23T00:15:24.763Z,76.93
2018-07-23T00:17:58.602Z,77.52
2018-07-23T00:20:34.936Z,79.42
2018-07-23T00:23:09.174Z,82.68
2018-07-23T00:25:46.281Z,83.09
2018-07-23T00:28:20.843Z,82.02
2018-07-23T00:30:54.650Z,82.86
2018-07-23T00:33:28.573Z,83.94
2018-07-23T00:36:02.770Z,83.99
2018-07-23T00:38:36.915Z,84.99
2018-07-23T00:41:10.706Z,85.33
2018-07-23T00:43:44.666Z,84.04
2018-07-23T00:46:18.994Z,82.18
2018-07-23T00:48:52.863Z,80.97
2018-07-23T00:51:26.571Z,80.75
2018-07-23T00:54:00.736Z,80.77
2018-07-23T00:56:34.522Z,82.77
2018-07-23T00:59:08.424Z,83.92
2018-07-23T01:01:42.370Z,84.22
2018-07-23T01:04:16.171Z,83.00
2018-07-23T01:06:49.906Z,82.15
2018-07-23T01:09:24.780Z,81.21
2018-07-23T01:11:58.752Z,80.84
2018-07-23T01:14:32.496Z,80.48
2018-07-23T01:17:06.618Z,79.51
2018-07-23T01:19:40.537Z,79.51
2018-07-23T01:22:19.290Z,79.15
2018-07-23T01:24:54.383Z,79.38
2018-07-23T01:27:29.477Z,79.72
2018-07-23T01:30:03.400Z,81.07
2018-07-23T01:32:37.176Z,84.61
2018-07-23T01:35:10.947Z,84.83
2018-07-23T01:37:44.944Z,84.58
2018-07-23T01:40:19.380Z,85.05
2018-07-23T01:42:53.461Z,84.83
2018-07-23T01:45:27.352Z,83.28
2018-07-23T01:48:01.593Z,82.39
2018-07-23T01:50:35.661Z,82.52
2018-07-23T01:53:09.659Z,81.95
2018-07-23T01:55:43.754Z,81.28
2018-07-23T01:58:17.665Z,84.43
2018-07-23T02:00:51.715Z,84.76
2018-07-23T02:03:25.490Z,85.80
2018-07-23T02:05:59.425Z,85.32
2018-07-23T02:08:33.336Z,85.43
2018-07-23T02:11:07.838Z,84.13
2018-07-23T02:13:41.698Z,83.92
2018-07-23T02:16:15.477Z,82.62
2018-07-23T02:18:49.432Z,82.03
2018-07-23T02:21:23.263Z,81.39
2018-07-23T02:23:57.196Z,81.80
2018-07-23T02:26:31.861Z,81.57
2018-07-23T02:29:05.842Z,81.14
2018-07-23T02:31:39.749Z,80.53
2018-07-23T02:34:13.740Z,80.62
2018-07-23T02:36:47.776Z,80.40
2018-07-23T02:39:21.756Z,82.60
2018-07-23T02:41:56.604Z,82.74
2018-07-23T02:44:30.620Z,85.13
2018-07-23T02:47:04.529Z,86.90
2018-07-23T02:49:39.254Z,87.52
2018-07-23T02:52:13.169Z,87.41
2018-07-23T02:54:47.015Z,87.21
2018-07-23T02:57:21.291Z,87.34
2018-07-23T02:59:55.181Z,86.58
2018-07-23T03:02:29.133Z,85.90
2018-07-23T03:05:03.019Z,84.78
2018-07-23T03:07:36.976Z,84.99
2018-07-23T03:10:10.938Z,85.26
2018-07-23T03:12:45.064Z,84.26
2018-07-23T03:15:19.024Z,83.96
2018-07-23T03:17:53.114Z,83.95
2018-07-23T03:20:26.801Z,83.96
2018-07-23T03:23:01.019Z,84.02
2018-07-23T03:25:34.780Z,83.08
2018-07-23T03:28:09.059Z,84.49
2018-07-23T03:30:42.971Z,85.51
2018-07-23T03:33:16.927Z,84.12
2018-07-23T03:35:50.829Z,83.95
2018-07-23T03:38:24.913Z,83.44
2018-07-23T03:40:58.696Z,83.27
2018-07-23T03:43:32.895Z,83.38
2018-07-23T03:46:06.833Z,86.50
2018-07-23T03:48:40.732Z,87.16
2018-07-23T03:51:16.372Z,85.91
2018-07-23T03:53:50.332Z,86.38
2018-07-23T03:56:24.210Z,86.52
2018-07-23T03:58:58.219Z,87.10
2018-07-23T04:01:31.995Z,88.48
2018-07-23T04:04:06.234Z,87.37
2018-07-23T04:06:39.954Z,87.42
2018-07-23T04:09:13.700Z,88.17
2018-07-23T04:11:47.507Z,89.49
2018-07-23T04:14:21.990Z,90.17
2018-07-23T04:16:55.801Z,89.60
2018-07-23T04:19:29.549Z,88.79
2018-07-23T04:22:03.550Z,89.00
2018-07-23T04:24:37.450Z,88.87
2018-07-23T04:27:11.293Z,88.38
2018-07-23T04:29:45.435Z,87.68
2018-07-23T04:32:19.237Z,87.03
2018-07-23T04:34:58.594Z,86.75
2018-07-23T04:37:32.470Z,84.92
2018-07-23T04:40:07.525Z,84.00
2018-07-23T04:42:41.279Z,83.12
2018-07-23T04:45:15.651Z,81.63
2018-07-23T04:47:49.453Z,80.24
2018-07-23T04:50:23.378Z,79.49
2018-07-23T04:52:57.645Z,77.73
2018-07-23T04:55:31.600Z,76.79
2018-07-23T04:58:05.501Z,76.91
2018-07-23T05:00:39.726Z,77.23
2018-07-23T05:03:13.637Z,76.52
2018-07-23T05:05:47.558Z,75.88
2018-07-23T05:08:21.580Z,74.78
2018-07-23T05:10:55.410Z,74.49
2018-07-23T05:13:29.072Z,72.62
2018-07-23T05:16:04.154Z,71.88
2018-07-23T05:18:37.913Z,70.94
2018-07-23T05:21:11.792Z,69.09
2018-07-23T05:23:45.684Z,69.05
2018-07-23T05:26:19.660Z,69.79
2018-07-23T05:28:53.569Z,68.88
2018-07-23T05:31:27.775Z,69.02
2018-07-23T05:34:01.750Z,69.65
2018-07-23T05:36:35.621Z,70.34
2018-07-23T05:39:10.651Z,70.46
2018-07-23T05:41:44.489Z,69.96
2018-07-23T05:44:18.440Z,68.33
2018-07-23T05:46:52.873Z,67.55
2018-07-23T05:49:26.683Z,66.63
2018-07-23T05:52:00.452Z,65.22
2018-07-23T05:54:34.661Z,63.98
2018-07-23T05:57:08.477Z,61.30
2018-07-23T05:59:42.133Z,60.44
2018-07-23T06:04:56.679Z,61.46
2018-07-23T06:07:30.533Z,62.48
2018-07-23T06:10:04.936Z,60.90
2018-07-23T06:12:38.717Z,60.16
2018-07-23T06:15:12.755Z,58.41
2018-07-23T06:17:46.684Z,59.04
2018-07-23T06:20:20.774Z,58.42
2018-07-23T06:22:54.675Z,57.23
2018-07-23T06:25:28.556Z,56.82
2018-07-23T06:28:02.372Z,56.32
2018-07-23T06:30:36.156Z,57.93
2018-07-23T06:33:10.123Z,57.74
2018-07-23T06:35:44.154Z,58.72
2018-07-23T06:38:18.206Z,58.98
2018-07-23T06:40:52.156Z,58.41
2018-07-23T06:43:25.888Z,59.08
2018-07-23T06:45:59.752Z,57.65
2018-07-23T06:48:27.535Z,58.07
2018-07-23T06:50:55.913Z,57.44
2018-07-23T06:53:24.087Z,56.30
2018-07-23T06:55:53.266Z,55.69
2018-07-23T06:58:21.056Z,55.40
2018-07-23T07:00:48.859Z,55.41
2018-07-23T07:03:16.631Z,54.42
2018-07-23T07:05:44.381Z,54.26
2018-07-23T07:08:12.269Z,53.94
2018-07-23T07:10:40.033Z,52.47
2018-07-23T07:13:07.977Z,52.51
2018-07-23T07:15:36.449Z,50.37
2018-07-23T07:18:07.976Z,50.27
2018-07-23T07:20:35.860Z,49.51
2018-07-23T07:23:04.178Z,50.03
2018-07-23T07:25:32.107Z,49.30
2018-07-23T07:27:59.973Z,49.15
2018-07-23T07:33:20.294Z,48.93
2018-07-23T07:35:54.313Z,46.12
2018-07-23T07:38:22.241Z,47.29
2018-07-23T07:40:50.200Z,46.99
2018-07-23T07:43:18.192Z,45.70
2018-07-23T07:45:46.121Z,45.33
2018-07-23T07:48:13.997Z,43.62
2018-07-23T07:50:41.887Z,43.28
2018-07-23T07:53:10.105Z,41.84
2018-07-23T07:55:37.973Z,42.73
2018-07-23T07:58:06.578Z,42.20
2018-07-23T08:00:34.488Z,39.53
2018-07-23T08:03:02.431Z,41.03
2018-07-23T08:05:30.308Z,42.75
2018-07-23T08:07:58.351Z,39.56
2018-07-23T08:10:26.235Z,38.51
2018-07-23T08:12:54.137Z,36.58
2018-07-23T08:28:10.625Z,34.47
2018-07-23T08:30:38.511Z,34.88
2018-07-23T08:33:06.602Z,34.41
2018-07-23T08:35:34.479Z,34.58
2018-07-23T08:38:02.386Z,34.49
2018-07-23T08:40:30.596Z,32.68
2018-07-23T08:42:58.526Z,32.41
2018-07-23T08:45:26.489Z,33.08
2018-07-23T08:47:54.741Z,33.67
2018-07-23T08:50:22.648Z,32.94
2018-07-23T08:52:50.682Z,33.68
2018-07-23T08:55:18.639Z,33.13
2018-07-23T08:57:46.521Z,33.29
2018-07-23T09:00:14.772Z,32.84
2018-07-23T09:02:42.705Z,32.00
2018-07-23T09:05:10.580Z,32.42
2018-07-23T09:07:38.441Z,32.04
2018-07-23T09:10:07.097Z,32.18
2018-07-23T09:12:34.996Z,31.37
2018-07-23T09:15:02.970Z,32.28
2018-07-23T09:17:30.905Z,33.21
2018-07-23T09:19:58.953Z,30.83
2018-07-23T09:22:26.849Z,31.06
2018-07-23T09:24:54.819Z,31.73
2018-07-23T09:27:22.704Z,30.64
2018-07-23T09:29:50.653Z,30.72
2018-07-23T09:32:34.567Z,31.23
2018-07-23T09:35:02.661Z,31.20
2018-07-23T09:37:30.527Z,30.99
2018-07-23T09:39:58.429Z,31.10
2018-07-23T09:42:26.304Z,31.55
2018-07-23T09:44:54.191Z,30.98
2018-07-23T09:47:22.128Z,31.05
2018-07-23T09:49:50.009Z,30.77
2018-07-23T18:25:06.039Z,79.42
2018-07-23T18:27:38.654Z,78.83
2018-07-23T18:30:12.289Z,78.58
2018-07-23T18:32:44.929Z,78.31
2018-07-23T18:35:18.296Z,78.50
2018-07-23T18:37:47.594Z,78.60
2018-07-23T18:40:22.332Z,77.80
2018-07-23T18:42:57.082Z,75.70
2018-07-23T18:45:38.739Z,76.53
2018-07-23T18:48:34.893Z,76.11
2018-07-23T18:51:12.058Z,76.44
2018-07-23T18:53:53.180Z,76.48
2018-07-23T18:56:37.035Z,74.58
2018-07-23T18:59:10.521Z,77.76
2018-07-23T19:01:45.253Z,77.45
2018-07-23T19:04:17.407Z,74.48
2018-07-23T19:06:47.202Z,73.85
2018-07-23T19:09:16.612Z,75.17
2018-07-23T19:11:45.392Z,76.19
2018-07-23T19:14:14.340Z,77.17
2018-07-23T19:16:42.342Z,74.26
2018-07-23T19:19:10.282Z,75.98
2018-07-23T19:21:38.405Z,76.41
2018-07-23T19:24:06.660Z,75.31
2018-07-23T19:26:34.536Z,75.74
2018-07-23T19:29:02.476Z,76.14
2018-07-23T19:31:30.599Z,78.23
2018-07-23T19:34:00.454Z,78.26
2018-07-23T19:36:29.756Z,78.68
2018-07-23T19:38:57.856Z,79.16
2018-07-23T19:41:26.397Z,79.32
2018-07-23T19:43:54.537Z,78.83
2018-07-23T19:46:22.717Z,78.82
2018-07-23T19:48:50.522Z,79.42
2018-07-23T19:51:19.540Z,79.42
2018-07-23T19:53:47.352Z,79.80
2018-07-23T19:56:15.336Z,79.74
2018-07-23T19:58:49.504Z,80.30
2018-07-23T20:01:23.768Z,80.00
2018-07-23T20:03:58.346Z,78.53
2018-07-23T20:06:32.285Z,79.27
2018-07-23T20:09:08.368Z,79.51
2018-07-23T20:11:42.227Z,80.03
2018-07-23T20:14:22.654Z,79.94
2018-07-23T20:16:57.076Z,79.95
2018-07-23T20:19:31.137Z,79.95
2018-07-23T20:22:04.996Z,79.83
2018-07-23T20:24:39.353Z,79.93
2018-07-23T20:27:13.228Z,78.65
2018-07-23T20:29:47.385Z,78.53
2018-07-23T20:32:21.324Z,77.87
2018-07-23T20:34:55.884Z,77.71
2018-07-23T20:37:29.714Z,77.43
2018-07-23T20:40:03.796Z,76.96
2018-07-23T20:42:37.609Z,77.24
2018-07-23T20:45:11.837Z,77.21
2018-07-23T20:47:45.739Z,76.86
2018-07-23T20:50:19.713Z,79.50
2018-07-23T20:52:53.700Z,80.46
2018-07-23T20:55:27.650Z,80.85
2018-07-23T20:58:01.525Z,81.06
2018-07-23T21:08:35.385Z,82.64
2018-07-23T21:11:09.336Z,83.43
2018-07-23T21:13:43.266Z,83.31
2018-07-23T21:16:17.925Z,83.87
2018-07-23T21:18:51.872Z,83.40
2018-07-23T21:21:25.725Z,82.90
2018-07-23T21:23:59.716Z,82.78
2018-07-23T21:26:33.926Z,82.58
2018-07-23T21:29:07.907Z,83.89
2018-07-23T21:31:41.905Z,83.64
2018-07-23T21:34:15.953Z,83.21
2018-07-23T21:36:50.088Z,83.46
2018-07-23T21:39:25.165Z,84.99
2018-07-23T21:41:59.044Z,84.46
2018-07-23T21:44:33.014Z,84.23
2018-07-23T21:47:06.868Z,84.37
2018-07-23T21:49:40.844Z,83.63
2018-07-23T21:52:14.664Z,82.93
2018-07-23T21:54:49.854Z,84.45
2018-07-23T21:57:23.772Z,83.81
2018-07-23T21:59:57.713Z,85.51
2018-07-23T22:02:31.444Z,84.94
2018-07-23T22:05:06.425Z,83.16
2018-07-23T22:07:40.345Z,82.35
2018-07-23T22:10:14.543Z,83.75
2018-07-23T22:12:48.506Z,84.77
2018-07-23T22:15:22.300Z,83.30
2018-07-23T22:17:56.200Z,82.31
2018-07-23T22:20:30.142Z,79.89
2018-07-23T22:23:04.179Z,80.83
2018-07-23T22:25:38.317Z,80.36
2018-07-23T22:28:12.695Z,80.35
2018-07-23T22:30:46.692Z,80.26
2018-07-23T22:33:20.584Z,80.05
2018-07-23T22:35:54.670Z,80.42
2018-07-23T22:38:28.460Z,80.46
2018-07-23T22:41:02.797Z,80.21
2018-07-23T22:43:36.748Z,79.47
2018-07-23T22:46:10.688Z,79.62
2018-07-23T22:48:44.367Z,81.46
2018-07-23T22:51:18.279Z,83.09
2018-07-23T22:53:52.201Z,84.01
2018-07-23T23:01:45.669Z,83.63
2018-07-23T23:04:19.419Z,83.73
2018-07-23T23:06:53.358Z,82.17
2018-07-23T23:09:27.077Z,82.61
2018-07-23T23:12:01.091Z,81.36
2018-07-23T23:14:35.036Z,82.24
2018-07-23T23:17:09.396Z,81.97
2018-07-23T23:19:43.090Z,82.42
2018-07-23T23:22:16.936Z,82.43
2018-07-23T23:24:50.913Z,82.30
2018-07-23T23:27:24.952Z,82.37
2018-07-23T23:29:59.190Z,82.40
2018-07-23T23:32:33.182Z,82.02
2018-07-23T23:35:07.074Z,82.35
2018-07-23T23:37:40.986Z,82.43
2018-07-23T23:40:15.220Z,82.10
2018-07-23T23:42:48.957Z,81.89
2018-07-23T23:45:22.789Z,82.66
2018-07-23T23:47:56.964Z,81.08
2018-07-23T23:50:30.728Z,79.70
2018-07-23T23:53:04.491Z,79.09
2018-07-23T23:55:38.507Z,79.48
2018-07-23T23:58:12.468Z,79.32
